Time;durP1;ratioP1;P1;durP2;ratioP2;P2;SDS_P1;SDS_P2;PMS_P1;PMS_P2;Temp;Humidity;BMP_temperature;BMP_pressure;BME280_temperature;BME280_humidity;BME280_pressure;Samples;Min_cycle;Max_cycle;Signal;HPM_P1;HPM_P2
2023/07/11 00:01:55;;;;;;;1.50;0.90;;;21.90;90.80;;;;;;5027484;28;20459;-84
2023/07/11 00:04:22;;;;;;;1.50;0.90;;;21.90;91.10;;;;;;5031554;28;20479;-83
2023/07/11 00:06:52;;;;;;;1.50;0.90;;;21.90;90.70;;;;;;5031160;28;20846;-84
2023/07/11 00:09:19;;;;;;;1.50;0.90;;;21.80;91.60;;;;;;5032358;28;20451;-84
2023/07/11 00:11:46;;;;;;;1.50;0.90;;;21.80;91.20;;;;;;5027175;28;20466;-85
2023/07/11 00:14:13;;;;;;;1.47;0.90;;;21.80;91.40;;;;;;5032086;28;20521;-85
2023/07/11 00:16:41;;;;;;;1.47;0.90;;;21.80;91.90;;;;;;5031614;28;20479;-85
2023/07/11 00:19:08;;;;;;;1.47;0.90;;;21.70;91.50;;;;;;5032388;28;20463;-84
2023/07/11 00:21:35;;;;;;;1.50;1.00;;;21.70;91.30;;;;;;5031063;28;20528;-85
2023/07/11 00:24:04;;;;;;;1.43;0.90;;;21.70;91.80;;;;;;5030757;28;20490;-82
2023/07/11 00:26:31;;;;;;;1.47;0.90;;;21.70;92.40;;;;;;5030197;28;20456;-84
2023/07/11 00:29:01;;;;;;;1.40;0.90;;;21.70;91.90;;;;;;5032466;28;20474;-84
2023/07/11 00:31:28;;;;;;;1.47;0.90;;;21.60;92.80;;;;;;5033810;28;20469;-83
2023/07/11 00:33:56;;;;;;;1.47;0.90;;;21.60;92.10;;;;;;5034675;28;21020;-83
2023/07/11 00:36:22;;;;;;;1.40;0.90;;;21.60;93.00;;;;;;5034760;28;20842;-84
2023/07/11 00:38:49;;;;;;;1.43;0.90;;;21.50;92.70;;;;;;5035314;28;20486;-84
2023/07/11 00:41:16;;;;;;;1.47;0.90;;;21.50;92.40;;;;;;5030597;28;20495;-83
2023/07/11 00:43:43;;;;;;;1.50;0.90;;;21.50;93.00;;;;;;5035712;28;20489;-84
2023/07/11 00:46:15;;;;;;;1.47;0.90;;;21.50;93.50;;;;;;5036583;28;20483;-82
2023/07/11 00:48:47;;;;;;;1.50;0.90;;;21.50;92.60;;;;;;5037832;28;20451;-83
2023/07/11 00:51:19;;;;;;;1.50;0.93;;;21.50;93.00;;;;;;5043730;28;20463;-83
2023/07/11 00:53:47;;;;;;;1.47;0.90;;;21.50;92.60;;;;;;5046786;28;20735;-83
2023/07/11 00:56:23;;;;;;;1.50;0.97;;;21.50;92.70;;;;;;5044922;28;20455;-83
2023/07/11 00:58:51;;;;;;;1.40;0.90;;;21.50;93.60;;;;;;5043908;28;20463;-83
2023/07/11 01:01:19;;;;;;;1.47;0.90;;;21.40;93.90;;;;;;5031467;28;20489;-85
2023/07/11 01:03:47;;;;;;;1.47;0.90;;;21.40;93.40;;;;;;5033570;28;20490;-84
2023/07/11 01:06:18;;;;;;;1.40;0.90;;;21.40;92.80;;;;;;5034120;28;20965;-82
2023/07/11 01:08:48;;;;;;;1.50;0.90;;;21.40;93.60;;;;;;5034815;28;20476;-84
2023/07/11 01:11:15;;;;;;;1.70;1.27;;;21.40;93.10;;;;;;5035529;28;20554;-85
2023/07/11 01:13:42;;;;;;;1.43;0.90;;;21.40;93.20;;;;;;5033023;28;21024;-85
2023/07/11 01:16:09;;;;;;;1.40;0.90;;;21.30;93.70;;;;;;5034721;28;20470;-84
2023/07/11 01:18:38;;;;;;;1.50;0.90;;;21.30;93.70;;;;;;5034921;28;20455;-85
2023/07/11 01:21:05;;;;;;;1.50;0.90;;;21.30;93.80;;;;;;5031340;28;20487;-84
2023/07/11 01:23:34;;;;;;;1.47;0.90;;;21.30;93.70;;;;;;5032607;28;20470;-84
2023/07/11 01:26:01;;;;;;;1.43;0.90;;;21.30;93.80;;;;;;5034278;28;20455;-83
2023/07/11 01:28:28;;;;;;;1.47;0.90;;;21.30;93.10;;;;;;5035108;28;20535;-84
2023/07/11 01:30:55;;;;;;;1.50;1.00;;;21.30;93.40;;;;;;5034789;28;20462;-83
2023/07/11 01:33:24;;;;;;;1.43;0.90;;;21.30;93.90;;;;;;5029506;28;20455;-84
2023/07/11 01:35:52;;;;;;;1.43;0.90;;;21.20;93.80;;;;;;5031694;28;20493;-83
2023/07/11 01:38:20;;;;;;;1.47;0.90;;;21.20;93.80;;;;;;5033378;28;20463;-83
2023/07/11 01:40:49;;;;;;;1.47;0.90;;;21.20;93.80;;;;;;5033707;28;20506;-83
2023/07/11 01:43:18;;;;;;;1.50;0.90;;;21.20;93.80;;;;;;5029045;28;20550;-84
2023/07/11 01:45:45;;;;;;;1.50;0.90;;;21.20;94.10;;;;;;5032484;28;20483;-84
2023/07/11 01:48:12;;;;;;;1.40;0.90;;;21.20;93.90;;;;;;5034437;28;20470;-82
2023/07/11 01:50:38;;;;;;;3.80;1.57;;;21.10;94.60;;;;;;5032565;28;20459;-85
2023/07/11 01:53:05;;;;;;;1.43;0.90;;;21.10;94.60;;;;;;5029348;28;20467;-83
2023/07/11 01:55:32;;;;;;;1.50;0.90;;;21.10;95.10;;;;;;5019542;28;20498;-83
2023/07/11 01:58:00;;;;;;;1.47;0.90;;;21.10;94.70;;;;;;5033495;28;20478;-83
2023/07/11 02:00:27;;;;;;;1.50;0.90;;;21.10;95.00;;;;;;5033198;28;21012;-82
2023/07/11 02:02:54;;;;;;;1.50;0.90;;;21.00;95.50;;;;;;5022427;28;20486;-83
2023/07/11 02:05:22;;;;;;;1.50;0.90;;;21.00;95.30;;;;;;5027614;28;20561;-82
2023/07/11 02:07:48;;;;;;;1.50;0.90;;;21.00;95.10;;;;;;5033317;28;20455;-83
2023/07/11 02:10:15;;;;;;;1.50;0.90;;;20.90;95.00;;;;;;5038515;28;20455;-84
2023/07/11 02:12:42;;;;;;;1.47;0.90;;;20.90;95.70;;;;;;5029958;28;20459;-86
2023/07/11 02:15:11;;;;;;;1.50;0.90;;;20.90;95.40;;;;;;5033943;28;20498;-86
2023/07/11 02:17:38;;;;;;;1.40;0.90;;;20.90;94.80;;;;;;5033275;28;20467;-86
2023/07/11 02:20:07;;;;;;;1.50;0.90;;;20.80;95.70;;;;;;5025880;28;20566;-85
2023/07/11 02:22:34;;;;;;;1.47;0.90;;;20.80;95.60;;;;;;5032165;28;20962;-84
2023/07/11 02:25:01;;;;;;;1.50;0.90;;;20.80;95.60;;;;;;5035566;28;20498;-84
2023/07/11 02:27:27;;;;;;;2.10;1.40;;;20.70;95.60;;;;;;5034129;28;20837;-86
2023/07/11 02:29:54;;;;;;;1.50;0.90;;;20.70;96.00;;;;;;5035255;28;20973;-88
2023/07/11 02:32:22;;;;;;;1.47;0.90;;;20.70;95.70;;;;;;5030323;28;20463;-86
2023/07/11 02:34:49;;;;;;;1.50;0.90;;;20.70;95.90;;;;;;5033304;28;20489;-84
2023/07/11 02:37:16;;;;;;;1.43;1.00;;;20.70;96.10;;;;;;5034208;28;20465;-84
2023/07/11 02:39:43;;;;;;;1.43;0.90;;;20.70;95.50;;;;;;5036961;28;20452;-87
2023/07/11 02:42:09;;;;;;;1.47;0.90;;;20.60;95.70;;;;;;5031915;28;20494;-88
2023/07/11 02:44:36;;;;;;;1.47;0.90;;;20.60;95.80;;;;;;5033544;28;20490;-86
2023/07/11 02:47:03;;;;;;;1.50;0.90;;;20.60;96.50;;;;;;5032871;28;20474;-85
2023/07/11 02:49:31;;;;;;;1.47;0.90;;;20.60;96.00;;;;;;5033815;28;20481;-85
2023/07/11 02:51:59;;;;;;;1.47;0.90;;;20.60;96.80;;;;;;5029563;28;20459;-87
2023/07/11 02:54:26;;;;;;;1.47;0.90;;;20.50;96.40;;;;;;5032094;28;20552;-82
2023/07/11 02:56:53;;;;;;;1.47;0.90;;;20.50;96.10;;;;;;5030655;28;20463;-82
2023/07/11 02:59:19;;;;;;;1.47;0.90;;;20.50;96.50;;;;;;5033485;28;20883;-86
2023/07/11 03:01:46;;;;;;;1.50;0.90;;;20.50;96.60;;;;;;5030269;28;20487;-88
2023/07/11 03:04:13;;;;;;;1.50;0.90;;;20.40;97.10;;;;;;5034301;28;20480;-87
2023/07/11 03:06:41;;;;;;;1.43;0.90;;;20.40;97.20;;;;;;5033119;28;20467;-82
2023/07/11 03:09:08;;;;;;;1.50;0.90;;;20.40;97.20;;;;;;5026556;28;20470;-86
2023/07/11 03:11:35;;;;;;;1.50;0.90;;;20.40;97.00;;;;;;5032311;28;20451;-85
2023/07/11 03:14:02;;;;;;;1.50;0.93;;;20.40;97.20;;;;;;5030389;28;20924;-85
2023/07/11 03:16:28;;;;;;;1.50;0.97;;;20.40;97.30;;;;;;5034088;28;20467;-86
2023/07/11 03:18:55;;;;;;;1.50;0.90;;;20.30;97.50;;;;;;5033688;28;20470;-87
2023/07/11 03:24:10;;;;;;;1.47;0.90;;;20.30;97.40;;;;;;4929867;29;20543;-81
2023/07/11 03:26:37;;;;;;;1.43;0.90;;;20.30;97.60;;;;;;4995409;28;20475;-82
2023/07/11 03:29:04;;;;;;;1.50;1.00;;;20.20;97.80;;;;;;5008660;28;20560;-79
2023/07/11 03:31:30;;;;;;;1.50;0.90;;;20.20;97.80;;;;;;5015536;28;20502;-81
2023/07/11 03:33:57;;;;;;;1.50;1.00;;;20.20;97.70;;;;;;5029650;28;20554;-81
2023/07/11 03:36:26;;;;;;;1.50;1.00;;;20.20;97.80;;;;;;5028985;28;20471;-80
2023/07/11 03:38:55;;;;;;;1.47;0.90;;;20.10;97.80;;;;;;5028535;28;20502;-82
2023/07/11 03:41:26;;;;;;;1.47;0.93;;;20.20;97.90;;;;;;5033030;28;20492;-81
2023/07/11 03:43:52;;;;;;;1.43;0.90;;;20.10;98.20;;;;;;5029819;28;20553;-81
2023/07/11 03:46:21;;;;;;;1.50;0.90;;;20.10;98.20;;;;;;5028846;28;20865;-82
2023/07/11 03:48:48;;;;;;;1.50;0.90;;;20.10;98.20;;;;;;5030870;28;20497;-80
2023/07/11 03:51:16;;;;;;;1.47;0.90;;;20.10;98.00;;;;;;5026444;28;20533;-81
2023/07/11 03:53:45;;;;;;;1.43;0.90;;;20.10;98.00;;;;;;5030795;28;20459;-81
2023/07/11 03:56:12;;;;;;;1.47;0.90;;;20.10;98.20;;;;;;5034775;28;20837;-81
2023/07/11 03:58:44;;;;;;;1.50;0.90;;;20.10;98.20;;;;;;5032594;28;20514;-81
2023/07/11 04:01:35;;;;;;;1.50;0.90;;;20.10;98.20;;;;;;5030751;28;20490;-82
2023/07/11 04:04:07;;;;;;;1.50;0.90;;;20.10;98.20;;;;;;5023337;28;20475;-82
2023/07/11 04:06:34;;;;;;;1.43;0.83;;;20.20;98.20;;;;;;5034512;28;20465;-82
2023/07/11 04:09:01;;;;;;;1.43;0.90;;;20.20;98.10;;;;;;5034133;28;20537;-82
2023/07/11 04:11:27;;;;;;;1.43;0.90;;;20.20;98.20;;;;;;5033995;28;20485;-82
2023/07/11 04:13:56;;;;;;;1.50;1.00;;;20.20;98.20;;;;;;5032355;28;20463;-82
2023/07/11 04:16:23;;;;;;;1.43;0.90;;;20.20;98.20;;;;;;5033233;28;20473;-81
2023/07/11 04:18:51;;;;;;;1.43;0.90;;;20.20;98.20;;;;;;5033970;28;20568;-80
2023/07/11 04:24:54;;;;;;;1.50;0.90;;;20.20;98.20;;;;;;4999555;28;20454;-82
2023/07/11 04:27:21;;;;;;;1.50;1.00;;;20.20;98.20;;;;;;5003946;28;20452;-82
2023/07/11 04:29:49;;;;;;;1.50;0.90;;;20.30;98.20;;;;;;5025254;28;20462;-83
2023/07/11 04:32:16;;;;;;;1.47;0.97;;;20.30;97.90;;;;;;5033054;28;20498;-81
2023/07/11 04:34:43;;;;;;;1.50;0.90;;;20.40;97.90;;;;;;5033876;28;20961;-81
2023/07/11 04:37:10;;;;;;;1.50;0.90;;;20.40;98.20;;;;;;5035615;28;20451;-82
2023/07/11 04:39:40;;;;;;;1.50;0.93;;;20.40;98.20;;;;;;5036017;28;20534;-82
2023/07/11 04:42:07;;;;;;;1.40;0.90;;;20.40;98.00;;;;;;5035561;28;20583;-82
2023/07/11 04:44:37;;;;;;;1.50;0.90;;;20.50;98.10;;;;;;5035956;28;20466;-82
2023/07/11 04:47:06;;;;;;;3.20;1.60;;;20.50;97.90;;;;;;5039060;28;20465;-81
2023/07/11 04:49:40;;;;;;;3.27;3.07;;;20.60;98.10;;;;;;5038706;28;20448;-81
2023/07/11 04:52:07;;;;;;;1.47;0.90;;;20.60;98.20;;;;;;5037921;28;20471;-82
2023/07/11 04:54:36;;;;;;;1.47;0.90;;;20.70;98.00;;;;;;5037871;28;21009;-84
2023/07/11 04:57:04;;;;;;;1.47;0.90;;;20.80;98.00;;;;;;5037821;28;20495;-83
2023/07/11 04:59:30;;;;;;;1.50;0.90;;;20.90;97.70;;;;;;5038333;28;20550;-83
2023/07/11 05:01:57;;;;;;;1.50;0.90;;;21.00;97.20;;;;;;5037054;28;20579;-82
2023/07/11 05:04:26;;;;;;;1.40;0.90;;;21.10;97.00;;;;;;5035571;28;20539;-82
2023/07/11 05:06:53;;;;;;;1.50;0.90;;;21.20;96.40;;;;;;5036620;28;20463;-84
2023/07/11 05:09:19;;;;;;;1.47;0.90;;;21.30;96.50;;;;;;5037771;28;20530;-80
2023/07/11 05:11:46;;;;;;;1.50;0.90;;;21.40;96.50;;;;;;5040624;28;20479;-80
2023/07/11 05:14:13;;;;;;;1.47;0.90;;;21.50;96.10;;;;;;5032641;28;20475;-81
2023/07/11 05:16:40;;;;;;;1.50;0.97;;;21.60;95.60;;;;;;5031725;28;20529;-80
2023/07/11 05:19:07;;;;;;;1.50;0.90;;;21.80;95.30;;;;;;5036789;28;20486;-80
2023/07/11 05:21:47;;;;;;;1.47;0.90;;;21.90;95.00;;;;;;5034502;28;20638;-81
2023/07/11 05:24:14;;;;;;;1.50;1.00;;;22.10;94.60;;;;;;5034410;28;20474;-81
2023/07/11 05:26:41;;;;;;;1.50;0.90;;;22.20;94.40;;;;;;5032721;28;20463;-81
2023/07/11 05:29:08;;;;;;;1.50;0.90;;;22.30;95.30;;;;;;5034180;28;20545;-81
2023/07/11 05:31:35;;;;;;;1.50;0.90;;;22.60;94.40;;;;;;5034747;28;20495;-81
2023/07/11 05:34:02;;;;;;;1.47;0.90;;;22.70;93.00;;;;;;5029310;28;20463;-80
2023/07/11 05:36:34;;;;;;;1.50;0.90;;;22.80;93.40;;;;;;5033882;28;20463;-82
2023/07/11 05:39:05;;;;;;;1.50;0.90;;;23.00;92.00;;;;;;5022655;28;20471;-81
2023/07/11 05:41:33;;;;;;;2.07;1.87;;;23.10;91.50;;;;;;5030631;28;20487;-80
2023/07/11 05:44:01;;;;;;;1.47;0.90;;;23.20;90.90;;;;;;5029638;28;20483;-80
2023/07/11 05:46:29;;;;;;;1.40;0.83;;;23.30;91.50;;;;;;5028158;28;20459;-79
2023/07/11 05:48:57;;;;;;;1.50;1.10;;;23.40;91.30;;;;;;5030738;28;20478;-81
2023/07/11 05:51:25;;;;;;;1.47;0.90;;;23.60;90.30;;;;;;5029514;28;20565;-80
2023/07/11 05:53:53;;;;;;;1.60;1.20;;;23.70;90.30;;;;;;5029880;28;20463;-79
2023/07/11 05:56:22;;;;;;;1.47;0.90;;;23.80;90.20;;;;;;5029532;28;20479;-80
2023/07/11 05:58:50;;;;;;;1.50;0.90;;;24.00;89.20;;;;;;5032609;28;20495;-80
2023/07/11 06:01:20;;;;;;;1.50;0.87;;;24.10;89.30;;;;;;5029055;28;20495;-79
2023/07/11 06:03:50;;;;;;;1.50;0.90;;;24.10;88.40;;;;;;5028011;28;20456;-83
2023/07/11 06:06:19;;;;;;;1.47;0.90;;;24.20;88.20;;;;;;5028508;28;20744;-81
2023/07/11 06:08:47;;;;;;;1.70;1.30;;;24.30;87.50;;;;;;5028893;28;20468;-81
2023/07/11 06:11:15;;;;;;;1.50;0.90;;;24.30;87.40;;;;;;5025791;28;20895;-80
2023/07/11 06:13:43;;;;;;;1.43;0.90;;;24.40;87.50;;;;;;5025463;28;20475;-78
2023/07/11 06:16:14;;;;;;;1.43;0.90;;;24.60;87.60;;;;;;5026001;28;20470;-81
2023/07/11 06:18:42;;;;;;;1.47;0.90;;;24.70;87.00;;;;;;5025620;28;20452;-81
2023/07/11 06:21:11;;;;;;;1.50;1.00;;;24.80;86.40;;;;;;5024588;28;20693;-78
2023/07/11 06:23:52;;;;;;;1.47;0.90;;;24.90;85.50;;;;;;5026432;28;20464;-79
2023/07/11 06:26:19;;;;;;;1.47;0.90;;;25.00;85.80;;;;;;5024846;28;20466;-78
2023/07/11 06:28:57;;;;;;;1.50;0.90;;;25.10;85.40;;;;;;5023553;28;20494;-79
2023/07/11 06:31:27;;;;;;;1.47;0.90;;;25.40;85.20;;;;;;5025928;28;20481;-78
2023/07/11 06:33:55;;;;;;;1.43;0.90;;;25.50;84.30;;;;;;5025107;28;20460;-81
2023/07/11 06:36:22;;;;;;;1.50;0.90;;;25.50;84.20;;;;;;5027376;28;20469;-78
2023/07/11 06:38:49;;;;;;;2.20;1.70;;;25.70;83.80;;;;;;5025710;28;20463;-79
2023/07/11 06:41:17;;;;;;;1.50;0.90;;;25.80;84.30;;;;;;5123350;23;20452;-77
2023/07/11 06:43:44;;;;;;;1.50;0.90;;;25.90;83.40;;;;;;5030470;28;20495;-79
2023/07/11 06:46:13;;;;;;;1.50;0.90;;;26.10;82.50;;;;;;5033450;28;20540;-79
2023/07/11 06:48:41;;;;;;;1.50;0.90;;;26.10;81.80;;;;;;5021982;28;20560;-80
2023/07/11 06:51:12;;;;;;;1.50;0.90;;;26.20;82.20;;;;;;5024632;28;20491;-79
2023/07/11 06:53:41;;;;;;;1.47;0.83;;;26.40;81.40;;;;;;5028862;28;20922;-78
2023/07/11 06:56:10;;;;;;;1.50;0.90;;;26.60;81.80;;;;;;5030890;28;21029;-79
2023/07/11 06:58:37;;;;;;;1.50;0.90;;;26.80;81.50;;;;;;5027534;28;20470;-79
2023/07/11 07:01:07;;;;;;;1.50;0.90;;;27.00;80.70;;;;;;5028459;28;20485;-78
2023/07/11 07:03:36;;;;;;;1.50;0.87;;;27.10;79.90;;;;;;5026122;28;20624;-79
2023/07/11 07:06:07;;;;;;;1.50;0.90;;;27.30;80.00;;;;;;5030913;28;20459;-80
2023/07/11 07:08:35;;;;;;;1.43;0.87;;;27.40;79.20;;;;;;5030287;28;20463;-79
2023/07/11 07:11:03;;;;;;;1.57;1.20;;;27.60;79.00;;;;;;5027254;28;20462;-79
2023/07/11 07:13:30;;;;;;;1.50;0.90;;;27.60;79.00;;;;;;5026778;28;20458;-79
2023/07/11 07:16:00;;;;;;;1.47;0.80;;;27.70;78.90;;;;;;5032764;28;20882;-79
2023/07/11 07:18:30;;;;;;;1.50;0.90;;;27.90;78.50;;;;;;5031240;28;20463;-79
2023/07/11 07:21:00;;;;;;;1.50;0.90;;;28.00;78.60;;;;;;5025987;28;20964;-79
2023/07/11 07:23:31;;;;;;;1.43;0.83;;;28.10;78.00;;;;;;5027190;28;20609;-79
2023/07/11 07:26:01;;;;;;;1.47;0.90;;;28.20;76.70;;;;;;5029195;28;20517;-78
2023/07/11 07:28:30;;;;;;;1.50;0.80;;;28.30;77.50;;;;;;5033828;28;20960;-78
2023/07/11 07:30:58;;;;;;;1.47;0.80;;;28.50;77.40;;;;;;5023939;28;21046;-79
2023/07/11 07:33:28;;;;;;;1.50;0.80;;;28.70;77.90;;;;;;5026250;28;20457;-79
2023/07/11 07:35:57;;;;;;;1.50;0.90;;;28.90;77.60;;;;;;5026678;28;20508;-79
2023/07/11 07:38:27;;;;;;;1.47;0.80;;;29.10;75.40;;;;;;5033288;28;20552;-80
2023/07/11 07:40:55;;;;;;;1.50;0.80;;;29.30;75.10;;;;;;5035031;28;20462;-80
2023/07/11 07:43:23;;;;;;;1.47;0.80;;;29.50;74.50;;;;;;5030213;28;20547;-80
2023/07/11 07:45:51;;;;;;;1.43;0.80;;;29.70;75.00;;;;;;5030139;28;21114;-78
2023/07/11 07:48:19;;;;;;;1.47;0.80;;;29.80;74.50;;;;;;5030373;28;20467;-79
2023/07/11 07:50:46;;;;;;;1.43;0.80;;;30.00;74.30;;;;;;5031334;28;20850;-79
2023/07/11 07:53:15;;;;;;;1.47;0.80;;;30.10;74.20;;;;;;5029014;28;20484;-79
2023/07/11 07:55:44;;;;;;;1.40;0.80;;;30.20;73.40;;;;;;5029416;28;20560;-79
2023/07/11 07:58:15;;;;;;;1.50;0.80;;;30.40;72.30;;;;;;5030679;28;20468;-80
2023/07/11 08:00:42;;;;;;;1.40;0.80;;;30.30;72.20;;;;;;5033639;28;20490;-80
2023/07/11 08:03:10;;;;;;;1.47;0.80;;;30.30;72.40;;;;;;5021085;28;20979;-79
2023/07/11 08:05:41;;;;;;;1.43;0.80;;;30.20;72.30;;;;;;5029506;28;20470;-79
2023/07/11 08:08:08;;;;;;;1.50;0.80;;;30.30;72.80;;;;;;5030275;28;20490;-78
2023/07/11 08:10:38;;;;;;;1.43;0.80;;;30.40;73.10;;;;;;5026435;28;20486;-80
2023/07/11 08:13:08;;;;;;;1.47;0.90;;;30.50;72.60;;;;;;5032829;28;20484;-80
2023/07/11 08:15:35;;;;;;;1.47;0.80;;;30.70;72.00;;;;;;5031265;28;20638;-78
2023/07/11 08:18:02;;;;;;;1.50;0.90;;;30.80;71.60;;;;;;5031439;28;20492;-79
2023/07/11 08:20:30;;;;;;;1.50;1.07;;;30.80;71.90;;;;;;5028205;28;20462;-80
2023/07/11 08:22:57;;;;;;;1.47;0.80;;;30.80;72.30;;;;;;5028721;28;20493;-80
2023/07/11 08:25:25;;;;;;;1.47;0.80;;;31.00;71.70;;;;;;5026412;28;21058;-78
2023/07/11 08:27:59;;;;;;;1.47;0.80;;;31.20;71.20;;;;;;5031383;28;20471;-79
2023/07/11 08:30:28;;;;;;;1.43;0.80;;;31.40;70.40;;;;;;5032401;28;20512;-78
2023/07/11 08:32:55;;;;;;;1.47;0.80;;;31.60;70.60;;;;;;5033866;28;20490;-80
2023/07/11 08:35:22;;;;;;;1.47;0.80;;;31.80;70.10;;;;;;5029963;28;20845;-80
2023/07/11 08:37:50;;;;;;;1.50;0.90;;;31.80;70.10;;;;;;5033202;28;20891;-80
2023/07/11 08:40:20;;;;;;;1.47;0.80;;;31.80;70.00;;;;;;5035682;28;20465;-80
2023/07/11 08:42:49;;;;;;;1.50;0.80;;;31.70;70.00;;;;;;5025776;28;20490;-80
2023/07/11 08:45:20;;;;;;;1.40;0.90;;;31.60;70.70;;;;;;5030484;28;20454;-79
2023/07/11 08:47:56;;;;;;;1.47;0.80;;;31.50;70.40;;;;;;5035429;28;20480;-79
2023/07/11 08:50:28;;;;;;;1.43;0.80;;;31.40;70.00;;;;;;5029199;28;20458;-80
2023/07/11 08:53:07;;;;;;;1.40;0.80;;;31.50;71.00;;;;;;5028274;28;20474;-79
2023/07/11 08:55:45;;;;;;;1.40;0.80;;;31.60;71.30;;;;;;5029353;28;20551;-79
2023/07/11 08:58:18;;;;;;;1.47;0.80;;;31.60;70.60;;;;;;5036551;28;20469;-79
2023/07/11 09:00:56;;;;;;;1.43;0.80;;;31.70;69.90;;;;;;5033590;28;20466;-79
2023/07/11 09:03:30;;;;;;;1.47;0.80;;;31.80;70.90;;;;;;5035719;28;20478;-79
2023/07/11 09:06:02;;;;;;;1.40;0.80;;;31.90;69.10;;;;;;5033618;28;20561;-78
2023/07/11 09:08:31;;;;;;;1.47;0.80;;;32.00;70.30;;;;;;5030713;28;20493;-79
2023/07/11 09:11:05;;;;;;;1.40;0.80;;;32.10;69.00;;;;;;5028018;28;20262;-79
2023/07/11 09:13:50;;;;;;;1.50;0.80;;;32.30;69.40;;;;;;5033790;28;20298;-79
2023/07/11 09:16:28;;;;;;;1.47;0.80;;;32.50;68.00;;;;;;5033943;28;20466;-79
2023/07/11 09:19:06;;;;;;;1.47;0.80;;;32.70;68.00;;;;;;5028903;28;20852;-80
2023/07/11 09:21:39;;;;;;;1.43;0.80;;;33.00;67.00;;;;;;5035417;28;21096;-80
2023/07/11 09:24:16;;;;;;;1.43;0.80;;;33.10;65.80;;;;;;5027825;28;20227;-79
2023/07/11 09:26:48;;;;;;;1.43;0.80;;;33.30;65.80;;;;;;5031314;28;20219;-79
2023/07/11 09:29:17;;;;;;;1.47;0.80;;;33.30;65.60;;;;;;5032687;28;20254;-79
2023/07/11 09:31:50;;;;;;;1.43;0.80;;;33.50;64.80;;;;;;5032659;28;20665;-79
2023/07/11 09:34:24;;;;;;;1.40;0.80;;;33.70;64.60;;;;;;5031099;28;20204;-80
2023/07/11 09:36:52;;;;;;;1.47;0.80;;;34.00;64.30;;;;;;5038181;28;20211;-81
2023/07/11 09:39:29;;;;;;;1.50;0.80;;;34.10;62.70;;;;;;5034831;28;20232;-79
2023/07/11 09:42:04;;;;;;;1.40;0.80;;;34.30;63.30;;;;;;5028880;28;20259;-80
2023/07/11 09:44:31;;;;;;;1.45;0.80;;;34.30;62.40;;;;;;5028423;28;20282;-79
2023/07/11 09:47:06;;;;;;;1.45;0.80;;;34.50;63.70;;;;;;5028031;28;20208;-80
2023/07/11 09:49:45;;;;;;;1.45;0.80;;;34.70;62.10;;;;;;5037765;28;20199;-79
2023/07/11 09:52:21;;;;;;;1.42;0.80;;;34.80;61.30;;;;;;5027615;28;20234;-80
2023/07/11 09:54:49;;;;;;;2.20;1.83;;;34.90;62.10;;;;;;5035809;28;20831;-80
2023/07/11 09:57:19;;;;;;;1.40;0.80;;;34.90;62.20;;;;;;5028471;28;20212;-80
2023/07/11 09:59:55;;;;;;;1.40;0.80;;;35.00;62.20;;;;;;5029703;28;20611;-80
2023/07/11 10:02:23;;;;;;;2.03;1.00;;;35.00;61.00;;;;;;5027666;28;20232;-82
2023/07/11 10:04:56;;;;;;;1.42;0.80;;;35.00;61.40;;;;;;5039482;28;20200;-81
2023/07/11 10:07:28;;;;;;;1.40;0.80;;;35.10;62.10;;;;;;5035255;28;20207;-82
2023/07/11 10:10:02;;;;;;;1.42;0.80;;;35.20;60.50;;;;;;5033064;28;20301;-81
2023/07/11 10:12:30;;;;;;;1.42;0.80;;;35.40;60.80;;;;;;5032791;28;20218;-80
2023/07/11 10:14:59;;;;;;;1.40;0.80;;;35.50;58.90;;;;;;5035438;28;20737;-81
2023/07/11 10:17:32;;;;;;;1.40;0.80;;;35.60;59.90;;;;;;5035944;28;20275;-81
2023/07/11 10:20:02;;;;;;;1.40;0.80;;;35.70;60.20;;;;;;5033771;28;20247;-81
2023/07/11 10:22:44;;;;;;;1.50;1.10;;;35.90;60.80;;;;;;5033679;28;20238;-80
2023/07/11 10:25:18;;;;;;;1.40;0.80;;;36.00;60.20;;;;;;5029046;28;21023;-79
2023/07/11 10:27:51;;;;;;;1.40;0.80;;;36.10;59.50;;;;;;5029855;28;20227;-80
2023/07/11 10:30:21;;;;;;;1.40;0.80;;;36.20;60.50;;;;;;5032683;28;20208;-81
2023/07/11 10:32:56;;;;;;;1.40;0.90;;;36.40;60.50;;;;;;5030625;28;20232;-80
2023/07/11 10:35:25;;;;;;;1.40;0.80;;;36.50;59.60;;;;;;5030509;28;20260;-79
2023/07/11 10:37:57;;;;;;;1.42;0.80;;;36.70;59.40;;;;;;5028095;28;20278;-82
2023/07/11 10:40:27;;;;;;;1.40;0.80;;;36.80;58.50;;;;;;5029176;28;20287;-83
2023/07/11 10:43:04;;;;;;;1.40;0.80;;;36.80;58.80;;;;;;5030912;28;20550;-81
2023/07/11 10:45:41;;;;;;;1.40;0.80;;;36.90;57.50;;;;;;5036177;28;20211;-80
2023/07/11 10:48:27;;;;;;;1.40;0.80;;;36.80;58.80;;;;;;5032698;28;20275;-79
2023/07/11 10:50:59;;;;;;;1.40;0.80;;;36.90;57.40;;;;;;5035613;28;20227;-80
2023/07/11 10:53:32;;;;;;;1.40;0.80;;;37.00;57.90;;;;;;5034931;28;20208;-80
2023/07/11 10:56:07;;;;;;;1.40;0.80;;;37.10;57.90;;;;;;5037442;28;20248;-80
2023/07/11 10:58:35;;;;;;;1.40;0.80;;;37.30;57.50;;;;;;5028797;28;20199;-81
2023/07/11 11:01:16;;;;;;;1.40;0.80;;;37.40;57.70;;;;;;5034003;28;20272;-81
2023/07/11 11:03:45;;;;;;;1.40;0.80;;;37.60;57.90;;;;;;5032568;28;20866;-81
2023/07/11 11:06:32;;;;;;;1.40;0.80;;;37.60;57.70;;;;;;5036076;28;20215;-80
2023/07/11 11:12:35;;;;;;;1.40;0.80;;;37.60;56.70;;;;;;5032559;28;20238;-81
2023/07/11 11:15:21;;;;;;;1.40;0.80;;;37.10;57.00;;;;;;5035364;28;20242;-81
2023/07/11 11:17:58;;;;;;;1.40;0.80;;;37.20;58.20;;;;;;5034447;28;20210;-80
2023/07/11 11:20:36;;;;;;;1.40;0.80;;;37.40;58.10;;;;;;5037040;28;20200;-80
2023/07/11 11:23:42;;;;;;;1.40;0.80;;;37.60;57.40;;;;;;5033682;28;20228;-80
2023/07/11 11:26:20;;;;;;;1.40;0.80;;;37.80;57.10;;;;;;5032387;28;20207;-78
2023/07/11 11:29:00;;;;;;;1.40;0.80;;;37.90;56.30;;;;;;5031609;28;20627;-79
2023/07/11 11:31:30;;;;;;;1.40;0.80;;;37.90;57.00;;;;;;5033043;28;20297;-79
2023/07/11 11:34:25;;;;;;;1.40;0.80;;;38.00;56.70;;;;;;5038358;28;20333;-80
2023/07/11 11:37:02;;;;;;;1.40;0.80;;;38.20;56.00;;;;;;5035324;28;20294;-81
2023/07/11 11:39:47;;;;;;;1.40;0.80;;;38.40;56.40;;;;;;5044845;28;20199;-81
2023/07/11 11:42:20;;;;;;;1.40;0.80;;;38.40;56.10;;;;;;5030925;28;20252;-80
2023/07/11 11:44:51;;;;;;;1.50;1.05;;;38.50;55.10;;;;;;5036326;28;20217;-81
2023/07/11 11:47:20;;;;;;;1.40;0.80;;;38.60;55.60;;;;;;5030372;28;20538;-80
2023/07/11 11:49:49;;;;;;;1.40;0.80;;;38.60;55.30;;;;;;5035996;28;20313;-81
2023/07/11 11:52:17;;;;;;;1.38;0.80;;;38.70;54.40;;;;;;5033740;28;20251;-80
2023/07/11 11:54:48;;;;;;;1.40;0.80;;;38.50;54.20;;;;;;5031458;28;20213;-79
2023/07/11 11:57:21;;;;;;;1.38;0.80;;;38.40;55.90;;;;;;5034035;28;20230;-80
2023/07/11 11:59:51;;;;;;;1.40;0.80;;;38.50;54.80;;;;;;5032322;28;20214;-81
2023/07/11 12:02:26;;;;;;;1.40;0.80;;;38.60;55.00;;;;;;5030736;28;20231;-80
2023/07/11 12:04:59;;;;;;;1.40;0.80;;;38.70;55.80;;;;;;5026620;28;20282;-81
2023/07/11 12:07:33;;;;;;;1.45;1.05;;;38.90;55.20;;;;;;5025310;28;20295;-81
2023/07/11 12:10:25;;;;;;;1.42;0.82;;;39.00;55.60;;;;;;5030321;28;20642;-80
2023/07/11 12:13:27;;;;;;;1.38;0.80;;;39.10;54.10;;;;;;5030969;28;20223;-80
2023/07/11 12:15:56;;;;;;;1.40;0.80;;;39.10;53.70;;;;;;5033864;28;20206;-81
2023/07/11 12:18:44;;;;;;;1.38;0.80;;;39.10;53.50;;;;;;5034162;28;20788;-81
2023/07/11 12:21:35;;;;;;;1.40;0.80;;;39.20;53.60;;;;;;5034652;28;20840;-82
2023/07/11 12:24:44;;;;;;;1.38;0.80;;;39.30;53.50;;;;;;5037279;28;20243;-81
2023/07/11 12:28:02;;;;;;;1.38;0.80;;;39.20;54.10;;;;;;5029551;28;20287;-80
2023/07/11 12:30:45;;;;;;;1.40;0.80;;;39.40;53.40;;;;;;5028837;28;20210;-80
2023/07/11 12:33:39;;;;;;;1.35;0.80;;;39.30;52.60;;;;;;5031782;28;20314;-81
2023/07/11 12:36:35;;;;;;;1.40;0.80;;;39.30;54.40;;;;;;5035706;28;20208;-80
2023/07/11 12:39:14;;;;;;;1.40;0.80;;;39.40;53.70;;;;;;5034650;28;20777;-80
2023/07/11 12:41:50;;;;;;;1.40;0.80;;;39.50;53.30;;;;;;5029493;28;20595;-80
2023/07/11 12:44:18;;;;;;;1.35;0.80;;;39.60;53.60;;;;;;5036948;28;20219;-81
2023/07/11 12:46:51;;;;;;;1.40;0.88;;;39.70;53.40;;;;;;5034168;28;20206;-79
2023/07/11 12:49:25;;;;;;;1.40;0.80;;;39.70;53.50;;;;;;5034032;28;20262;-79
2023/07/11 12:51:52;;;;;;;1.40;0.90;;;39.80;54.00;;;;;;5030978;28;20228;-80
2023/07/11 12:54:24;;;;;;;1.38;0.80;;;39.90;53.40;;;;;;5040484;28;20192;-81
2023/07/11 12:56:53;;;;;;;1.40;0.80;;;39.90;53.60;;;;;;5035627;28;20343;-80
2023/07/11 12:59:24;;;;;;;2.25;1.30;;;39.90;52.00;;;;;;5031284;28;20291;-80
2023/07/11 13:01:58;;;;;;;1.40;0.80;;;39.80;52.70;;;;;;5036229;28;20311;-81
2023/07/11 13:04:35;;;;;;;1.40;1.00;;;39.70;52.30;;;;;;5032133;28;20223;-79
2023/07/11 13:07:05;;;;;;;1.60;1.25;;;39.40;52.70;;;;;;5034485;28;20203;-80
2023/07/11 13:09:43;;;;;;;1.38;0.80;;;39.20;54.50;;;;;;5032836;28;20203;-80
2023/07/11 13:12:15;;;;;;;1.40;0.80;;;39.40;53.10;;;;;;5029935;28;20606;-80
2023/07/11 13:14:43;;;;;;;1.40;0.80;;;39.50;53.80;;;;;;5030638;28;20228;-80
2023/07/11 13:17:15;;;;;;;1.40;0.80;;;39.70;54.00;;;;;;5035021;28;20200;-80